createdAt,value
2019-05-17T06:00:34.945Z,11.25
2019-05-17T06:01:34.951Z,11.25
2019-05-17T06:02:34.897Z,11.25
2019-05-17T06:03:34.890Z,11.25
2019-05-17T06:04:34.872Z,11.25
2019-05-17T06:05:34.894Z,11.25
2019-05-17T06:06:34.878Z,11.25
2019-05-17T06:07:34.860Z,11.25
2019-05-17T06:08:34.830Z,11.25
2019-05-17T06:09:34.826Z,11.25
2019-05-17T06:10:34.812Z,11.25
2019-05-17T06:11:34.825Z,11.25
2019-05-17T06:12:34.830Z,11.25
2019-05-17T06:13:34.782Z,11.25
2019-05-17T06:14:34.767Z,11.25
2019-05-17T06:15:34.790Z,11.25
2019-05-17T06:16:34.755Z,11.25
2019-05-17T06:17:34.761Z,11.25
2019-05-17T06:18:34.720Z,11.25
2019-05-17T06:19:34.712Z,11.25
2019-05-17T06:20:34.739Z,11.25
2019-05-17T06:21:34.689Z,11.25
2019-05-17T06:22:34.681Z,11.25
2019-05-17T06:23:34.711Z,11.25
2019-05-17T06:24:34.660Z,11.25
2019-05-17T06:25:34.649Z,11.25
2019-05-17T06:26:34.671Z,11.25
2019-05-17T06:27:34.631Z,5.62
2019-05-17T06:28:34.649Z,5.62
2019-05-17T06:29:34.639Z,5.62
2019-05-17T06:30:34.601Z,5.62
2019-05-17T06:31:37.019Z,5.62
2019-05-17T06:32:34.575Z,5.62
2019-05-17T06:33:35.103Z,5.62
2019-05-17T06:34:34.565Z,5.62
2019-05-17T06:35:34.546Z,5.62
2019-05-17T06:36:34.531Z,5.62
2019-05-17T06:37:34.522Z,5.62
2019-05-17T06:38:34.546Z,5.62
2019-05-17T06:39:34.496Z,5.62
2019-05-17T06:40:34.496Z,5.62
2019-05-17T06:41:34.485Z,5.62
2019-05-17T06:42:40.489Z,5.62
2019-05-17T06:43:38.374Z,11.25
2019-05-17T06:44:34.448Z,11.25
2019-05-17T06:45:34.467Z,11.25
2019-05-17T06:46:34.434Z,5.62
2019-05-17T06:47:34.418Z,5.62
2019-05-17T06:48:34.416Z,5.62
2019-05-17T06:49:34.432Z,5.62
2019-05-17T06:50:34.416Z,5.62
2019-05-17T06:51:34.368Z,5.62
2019-05-17T06:52:34.372Z,5.62
2019-05-17T06:53:34.357Z,5.62
2019-05-17T06:54:34.356Z,5.62
2019-05-17T06:55:34.362Z,5.62
2019-05-17T06:56:34.337Z,5.62
2019-05-17T06:57:34.434Z,5.62
2019-05-17T06:58:34.295Z,5.62
2019-05-17T06:59:34.321Z,5.62
2019-05-17T07:00:34.273Z,5.62
2019-05-17T07:01:34.272Z,5.62
2019-05-17T07:02:36.040Z,5.62
2019-05-17T07:03:34.244Z,5.62
2019-05-17T07:04:34.226Z,5.62
2019-05-17T07:05:34.225Z,5.62
2019-05-17T07:06:34.217Z,5.62
2019-05-17T07:07:34.224Z,5.62
2019-05-17T07:08:34.185Z,5.62
2019-05-17T07:09:36.035Z,5.62
2019-05-17T07:10:34.172Z,5.62
2019-05-17T07:11:34.204Z,5.62
2019-05-17T07:12:34.147Z,5.62
2019-05-17T07:13:34.134Z,5.62
2019-05-17T07:14:34.127Z,5.62
2019-05-17T07:15:43.806Z,5.62
2019-05-17T07:16:35.137Z,5.62
2019-05-17T07:17:34.099Z,5.62
2019-05-17T07:18:34.080Z,5.62
2019-05-17T07:19:34.070Z,5.62
2019-05-17T07:20:34.072Z,5.62
2019-05-17T07:21:34.088Z,5.62
2019-05-17T07:22:34.046Z,5.62
2019-05-17T07:23:34.032Z,11.25
2019-05-17T07:24:34.019Z,11.25
2019-05-17T07:25:34.054Z,11.25
2019-05-17T07:26:34.001Z,11.25
2019-05-17T07:27:41.256Z,11.25
2019-05-17T07:28:35.018Z,11.25
2019-05-17T07:29:33.967Z,11.25
2019-05-17T07:30:33.960Z,11.25
2019-05-17T07:31:33.949Z,11.25
2019-05-17T07:32:33.965Z,11.25
2019-05-17T07:33:33.917Z,11.25
2019-05-17T07:34:33.944Z,11.25
2019-05-17T07:35:33.903Z,11.25
2019-05-17T07:36:33.917Z,11.25
2019-05-17T07:37:33.879Z,11.25
2019-05-17T07:38:33.876Z,11.25
2019-05-17T07:39:33.886Z,11.25
2019-05-17T07:40:33.842Z,11.25
2019-05-17T07:41:33.858Z,11.25
2019-05-17T07:42:33.822Z,11.25
2019-05-17T07:43:33.818Z,11.25
2019-05-17T07:44:33.807Z,11.25
2019-05-17T07:45:33.789Z,11.25
2019-05-17T07:46:33.815Z,16.88
2019-05-17T07:47:33.818Z,16.88
2019-05-17T07:48:33.792Z,16.88
2019-05-17T07:49:33.755Z,16.88
2019-05-17T07:50:33.737Z,16.88
2019-05-17T07:51:33.752Z,16.88
2019-05-17T07:52:33.753Z,16.88
2019-05-17T07:53:33.704Z,16.88
2019-05-17T07:54:33.715Z,16.88
2019-05-17T07:55:33.710Z,16.88
2019-05-17T07:56:33.674Z,16.88
2019-05-17T07:57:33.698Z,16.88
2019-05-17T07:58:33.649Z,16.88
2019-05-17T07:59:33.641Z,16.88
2019-05-17T08:00:33.634Z,16.88
2019-05-17T08:01:34.356Z,16.88
2019-05-17T08:02:33.657Z,11.25
2019-05-17T08:03:33.595Z,11.25
2019-05-17T08:04:33.687Z,11.25
2019-05-17T08:05:33.586Z,11.25
2019-05-17T08:06:33.584Z,11.25
2019-05-17T08:07:33.581Z,11.25
2019-05-17T08:08:33.538Z,11.25
2019-05-17T08:09:33.553Z,11.25
2019-05-17T08:10:33.535Z,11.25
2019-05-17T08:11:33.521Z,11.25
2019-05-17T08:12:33.566Z,11.25
2019-05-17T08:13:33.864Z,11.25
2019-05-17T08:14:33.705Z,11.25
2019-05-17T08:15:33.474Z,11.25
2019-05-17T08:16:33.467Z,11.25
2019-05-17T08:17:33.477Z,11.25
2019-05-17T08:18:33.438Z,11.25
2019-05-17T08:19:33.443Z,11.25
2019-05-17T08:20:33.419Z,11.25
2019-05-17T08:21:33.403Z,11.25
2019-05-17T08:22:33.447Z,11.25
2019-05-17T08:23:33.387Z,11.25
2019-05-17T08:24:33.371Z,11.25
2019-05-17T08:25:33.361Z,11.25
2019-05-17T08:26:33.399Z,11.25
2019-05-17T08:27:33.366Z,11.25
2019-05-17T08:28:33.324Z,16.88
2019-05-17T08:29:33.389Z,16.88
2019-05-17T08:30:33.304Z,16.88
2019-05-17T08:31:33.342Z,16.88
2019-05-17T08:32:33.289Z,16.88
2019-05-17T08:33:33.288Z,16.88
2019-05-17T08:34:33.286Z,16.88
2019-05-17T08:35:33.260Z,16.88
2019-05-17T08:36:33.273Z,16.88
2019-05-17T08:37:33.262Z,16.88
2019-05-17T08:38:33.222Z,16.88
2019-05-17T08:39:33.233Z,16.88
2019-05-17T08:40:33.205Z,16.88
2019-05-17T08:41:36.463Z,16.88
2019-05-17T08:42:33.177Z,16.88
2019-05-17T08:43:42.542Z,16.88
2019-05-17T08:44:34.219Z,16.88
2019-05-17T08:45:33.149Z,16.88
2019-05-17T08:46:33.174Z,16.88
2019-05-17T08:47:33.127Z,16.88
2019-05-17T08:48:33.129Z,16.88
2019-05-17T08:49:33.100Z,16.88
2019-05-17T08:50:33.130Z,16.88
2019-05-17T08:51:33.139Z,16.88
2019-05-17T08:52:33.075Z,16.88
2019-05-17T08:53:33.180Z,16.88
2019-05-17T08:54:33.089Z,16.88
2019-05-17T08:55:33.041Z,16.88
2019-05-17T08:56:33.023Z,16.88
2019-05-17T08:57:33.017Z,16.88
2019-05-17T08:58:33.076Z,16.88
2019-05-17T08:59:33.001Z,16.88
2019-05-17T09:00:32.993Z,16.88
2019-05-17T09:01:33.011Z,16.88
2019-05-17T09:02:32.963Z,16.88
2019-05-17T09:03:32.953Z,22.50
2019-05-17T09:04:32.953Z,22.50
2019-05-17T09:05:32.931Z,22.50
2019-05-17T09:06:32.957Z,22.50
2019-05-17T09:07:32.912Z,22.50
2019-05-17T09:08:32.916Z,22.50
2019-05-17T09:09:32.888Z,22.50
2019-05-17T09:10:32.889Z,22.50
2019-05-17T09:11:32.896Z,22.50
2019-05-17T09:12:32.857Z,22.50
2019-05-17T09:13:32.848Z,22.50
2019-05-17T09:14:32.831Z,22.50
2019-05-17T09:15:32.876Z,22.50
2019-05-17T09:16:32.821Z,28.12
2019-05-17T09:17:32.802Z,28.12
2019-05-17T09:18:32.785Z,28.12
2019-05-17T09:19:32.787Z,28.12
2019-05-17T09:20:32.797Z,28.12
2019-05-17T09:21:32.773Z,28.12
2019-05-17T09:22:32.781Z,28.12
2019-05-17T09:23:32.735Z,28.12
2019-05-17T09:24:32.748Z,28.12
2019-05-17T09:25:32.718Z,28.12
2019-05-17T09:26:32.703Z,28.12
2019-05-17T09:27:32.697Z,28.12
2019-05-17T09:28:32.717Z,28.12
2019-05-17T09:29:32.677Z,33.75
2019-05-17T09:30:32.662Z,33.75
2019-05-17T09:31:32.650Z,33.75
2019-05-17T09:32:32.680Z,33.75
2019-05-17T09:33:32.650Z,33.75
2019-05-17T09:34:32.630Z,33.75
2019-05-17T09:35:32.617Z,28.12
2019-05-17T09:36:32.605Z,28.12
2019-05-17T09:37:32.620Z,28.12
2019-05-17T09:38:32.575Z,28.12
2019-05-17T09:39:32.809Z,28.12
2019-05-17T09:40:32.559Z,28.12
2019-05-17T09:41:32.540Z,28.12
2019-05-17T09:42:32.531Z,33.75
2019-05-17T09:43:32.571Z,33.75
2019-05-17T09:44:32.540Z,33.75
2019-05-17T09:45:32.501Z,33.75
2019-05-17T09:46:32.506Z,33.75
2019-05-17T09:47:32.506Z,33.75
2019-05-17T09:48:32.505Z,33.75
2019-05-17T09:49:32.458Z,33.75
2019-05-17T09:50:32.507Z,28.12
2019-05-17T09:51:32.449Z,28.12
2019-05-17T09:52:32.427Z,28.12
2019-05-17T09:53:32.445Z,28.12
2019-05-17T09:54:42.288Z,28.12
2019-05-17T09:55:33.417Z,28.12
2019-05-17T09:56:32.411Z,28.12
2019-05-17T09:57:32.378Z,28.12
2019-05-17T09:58:32.360Z,33.75
2019-05-17T09:59:32.416Z,39.38
2019-05-17T10:00:32.364Z,45.00
2019-05-17T10:01:32.352Z,50.62
2019-05-17T10:02:32.344Z,56.25
2019-05-17T10:03:32.300Z,61.88
2019-05-17T10:04:32.303Z,67.50
2019-05-17T10:05:32.289Z,67.50
2019-05-17T10:06:32.311Z,67.50
2019-05-17T10:07:32.278Z,61.88
2019-05-17T10:08:32.272Z,61.88
2019-05-17T10:09:32.251Z,56.25
2019-05-17T10:10:32.238Z,56.25
2019-05-17T10:11:32.283Z,50.62
2019-05-17T10:12:32.215Z,45.00
2019-05-17T10:13:32.222Z,45.00
2019-05-17T10:14:32.198Z,39.38
2019-05-17T10:15:32.173Z,33.75
2019-05-17T10:16:32.195Z,28.12
2019-05-17T10:17:32.199Z,28.12
2019-05-17T10:18:32.155Z,28.12
2019-05-17T10:19:32.130Z,28.12
2019-05-17T10:20:32.125Z,33.75
2019-05-17T10:21:32.141Z,28.12
2019-05-17T10:22:32.104Z,28.12
2019-05-17T10:23:32.090Z,28.12
2019-05-17T10:24:37.881Z,28.12
2019-05-17T10:25:33.071Z,28.12
2019-05-17T10:26:32.091Z,28.12
2019-05-17T10:27:32.069Z,28.12
2019-05-17T10:28:32.032Z,28.12
2019-05-17T10:29:32.024Z,28.12
2019-05-17T10:30:32.010Z,22.50
2019-05-17T10:31:32.009Z,28.12
2019-05-17T10:32:32.020Z,28.12
2019-05-17T10:33:31.981Z,28.12
2019-05-17T10:34:31.965Z,28.12
2019-05-17T10:35:31.960Z,28.12
2019-05-17T10:36:31.958Z,28.12
2019-05-17T10:37:31.971Z,28.12
2019-05-17T10:38:31.928Z,28.12
2019-05-17T10:39:32.944Z,28.12
2019-05-17T10:40:31.904Z,28.12
2019-05-17T10:41:31.894Z,28.12
2019-05-17T10:42:31.919Z,28.12
2019-05-17T10:43:31.928Z,33.75
2019-05-17T10:44:43.091Z,33.75
2019-05-17T10:45:32.847Z,33.75
2019-05-17T10:46:31.846Z,28.12
2019-05-17T10:47:31.831Z,28.12
2019-05-17T10:48:31.855Z,22.50
2019-05-17T10:49:31.813Z,28.12
2019-05-17T10:50:31.846Z,28.12
2019-05-17T10:51:31.821Z,28.12
2019-05-17T10:52:31.814Z,33.75
2019-05-17T10:53:31.774Z,39.38
2019-05-17T10:54:31.753Z,39.38
2019-05-17T10:55:31.744Z,39.38
2019-05-17T10:56:31.766Z,39.38
2019-05-17T10:57:31.756Z,39.38
2019-05-17T10:58:31.720Z,33.75
2019-05-17T10:59:31.698Z,33.75
2019-05-17T11:00:31.703Z,28.12
2019-05-17T11:01:31.683Z,22.50
2019-05-17T11:02:31.692Z,22.50
2019-05-17T11:03:31.689Z,22.50
2019-05-17T11:04:33.444Z,22.50
2019-05-17T11:05:31.640Z,22.50
2019-05-17T11:06:31.638Z,22.50
2019-05-17T11:07:31.635Z,22.50
2019-05-17T11:08:31.652Z,22.50
2019-05-17T11:09:31.663Z,22.50
2019-05-17T11:10:31.587Z,22.50
2019-05-17T11:11:31.577Z,22.50
2019-05-17T11:12:31.564Z,28.12
2019-05-17T11:13:31.611Z,28.12
2019-05-17T11:14:31.545Z,28.12
2019-05-17T11:15:31.529Z,28.12
2019-05-17T11:16:31.527Z,28.12
2019-05-17T11:17:31.517Z,28.12
2019-05-17T11:18:31.583Z,28.12
2019-05-17T11:19:31.530Z,28.12
2019-05-17T11:20:31.487Z,28.12
2019-05-17T11:21:31.463Z,28.12
2019-05-17T11:22:31.543Z,28.12
2019-05-17T11:23:31.495Z,28.12
2019-05-17T11:24:31.476Z,28.12
2019-05-17T11:25:31.460Z,28.12
2019-05-17T11:26:31.407Z,28.12
2019-05-17T11:27:31.424Z,28.12
2019-05-17T11:28:31.419Z,28.12
2019-05-17T11:29:31.388Z,28.12
2019-05-17T11:30:31.472Z,33.75
2019-05-17T11:31:31.364Z,33.75
2019-05-17T11:32:31.397Z,33.75
2019-05-17T11:33:31.357Z,39.38
2019-05-17T11:34:31.330Z,39.38
2019-05-17T11:35:31.350Z,39.38
2019-05-17T11:36:32.877Z,39.38
2019-05-17T11:37:31.319Z,39.38
2019-05-17T11:38:31.311Z,45.00
2019-05-17T11:39:31.890Z,45.00
2019-05-17T11:40:31.287Z,45.00
2019-05-17T11:41:31.288Z,45.00
2019-05-17T11:42:31.248Z,45.00
2019-05-17T11:43:31.305Z,45.00
2019-05-17T11:44:31.219Z,39.38
2019-05-17T11:45:32.805Z,39.38
2019-05-17T11:46:36.091Z,45.00
2019-05-17T11:47:32.184Z,45.00
2019-05-17T11:48:31.198Z,45.00
2019-05-17T11:49:31.168Z,45.00
2019-05-17T11:50:31.175Z,50.62
2019-05-17T11:51:31.140Z,50.62
2019-05-17T11:52:31.169Z,50.62
2019-05-17T11:53:31.122Z,50.62
2019-05-17T11:54:31.107Z,50.62
2019-05-17T11:55:31.145Z,50.62
2019-05-17T11:56:31.085Z,50.62
2019-05-17T11:57:31.127Z,56.25
2019-05-17T11:58:31.336Z,56.25
2019-05-17T11:59:31.127Z,61.88
2019-05-17T12:00:31.040Z,73.12
2019-05-17T12:01:31.040Z,67.50
2019-05-17T12:02:31.015Z,73.12
2019-05-17T12:03:31.016Z,67.50
2019-05-17T12:04:31.033Z,67.50
2019-05-17T12:05:31.020Z,67.50
2019-05-17T12:06:31.779Z,67.50
2019-05-17T12:07:30.963Z,61.88
2019-05-17T12:08:32.079Z,67.50
2019-05-17T12:09:37.387Z,73.12
2019-05-17T12:10:31.978Z,67.50
2019-05-17T12:11:30.944Z,61.88
2019-05-17T12:12:30.913Z,56.25
2019-05-17T12:13:30.902Z,50.62
2019-05-17T12:14:30.895Z,45.00
2019-05-17T12:15:44.452Z,45.00
2019-05-17T12:16:31.907Z,45.00
2019-05-17T12:17:30.854Z,45.00
2019-05-17T12:18:30.844Z,45.00
2019-05-17T12:19:30.916Z,45.00
2019-05-17T12:20:30.889Z,50.62
2019-05-17T12:21:30.849Z,56.25
2019-05-17T12:22:30.820Z,61.88
2019-05-17T12:23:30.816Z,50.62
2019-05-17T12:24:30.800Z,50.62
2019-05-17T12:25:30.803Z,56.25
2019-05-17T12:26:30.762Z,67.50
2019-05-17T12:27:30.778Z,73.12
2019-05-17T12:28:30.761Z,73.12
2019-05-17T12:29:30.742Z,67.50
2019-05-17T12:30:30.717Z,67.50
2019-05-17T12:31:30.702Z,73.12
2019-05-17T12:32:30.762Z,56.25
2019-05-17T12:33:30.710Z,56.25
2019-05-17T12:34:30.670Z,61.88
2019-05-17T12:35:30.774Z,61.88
2019-05-17T12:36:30.738Z,61.88
2019-05-17T12:37:30.725Z,61.88
2019-05-17T12:38:30.762Z,73.12
2019-05-17T12:39:30.678Z,78.75
2019-05-17T12:40:30.605Z,84.38
2019-05-17T12:41:30.612Z,78.75
2019-05-17T12:42:30.619Z,84.38
2019-05-17T12:43:30.694Z,78.75
2019-05-17T12:44:30.571Z,73.12
2019-05-17T12:45:30.595Z,73.12
2019-05-17T12:46:30.546Z,67.50
2019-05-17T12:47:30.618Z,67.50
2019-05-17T12:48:30.550Z,73.12
2019-05-17T12:49:31.377Z,67.50
2019-05-17T12:50:30.571Z,61.88
2019-05-17T12:51:32.867Z,67.50
2019-05-17T12:52:30.484Z,56.25
2019-05-17T12:54:20.941Z,50.62
2019-05-17T12:55:20.945Z,50.62
2019-05-17T12:56:20.967Z,45.00
2019-05-17T12:57:20.855Z,45.00
2019-05-17T12:58:20.816Z,45.00
2019-05-17T12:59:20.787Z,39.38
2019-05-17T13:00:20.861Z,39.38
2019-05-17T13:01:20.760Z,39.38
2019-05-17T13:02:20.746Z,39.38
2019-05-17T13:03:21.545Z,39.38
2019-05-17T13:04:20.730Z,39.38
2019-05-17T13:05:20.748Z,39.38
2019-05-17T13:06:20.727Z,39.38
2019-05-17T13:07:20.691Z,39.38
2019-05-17T13:08:20.717Z,39.38
2019-05-17T13:09:20.685Z,39.38
2019-05-17T13:10:20.671Z,39.38
2019-05-17T13:11:20.655Z,45.00
2019-05-17T13:12:20.640Z,45.00
2019-05-17T13:13:20.664Z,45.00
2019-05-17T13:14:20.624Z,50.62
2019-05-17T13:15:28.312Z,56.25
2019-05-17T13:16:20.770Z,56.25
2019-05-17T13:17:20.721Z,61.88
2019-05-17T13:18:20.598Z,61.88
2019-05-17T13:19:20.623Z,61.88
2019-05-17T13:20:20.573Z,56.25
2019-05-17T13:21:20.542Z,61.88
2019-05-17T13:22:20.616Z,67.50
2019-05-17T13:23:20.521Z,67.50
2019-05-17T13:24:20.511Z,78.75
2019-05-17T13:25:20.509Z,90.00
2019-05-17T13:26:20.506Z,56.25
2019-05-17T13:27:20.609Z,67.50
2019-05-17T13:28:20.607Z,61.88
2019-05-17T13:29:20.470Z,90.00
2019-05-17T13:30:20.456Z,123.75
2019-05-17T13:31:20.455Z,84.38
2019-05-17T13:32:20.422Z,67.50
2019-05-17T13:33:20.453Z,73.12
2019-05-17T13:34:20.413Z,67.50
2019-05-17T13:35:20.406Z,61.88
2019-05-17T13:36:20.391Z,61.88
2019-05-17T13:37:20.378Z,61.88
2019-05-17T13:38:20.407Z,50.62
2019-05-17T13:39:27.112Z,45.00
2019-05-17T13:40:20.382Z,45.00
2019-05-17T13:41:20.329Z,45.00
2019-05-17T13:42:20.356Z,45.00
2019-05-17T13:43:20.366Z,50.62
2019-05-17T13:44:20.352Z,56.25
2019-05-17T13:45:20.342Z,56.25
2019-05-17T13:46:32.259Z,50.62
2019-05-17T13:47:21.281Z,50.62
2019-05-17T13:48:20.293Z,50.62
2019-05-17T13:49:20.261Z,56.25
2019-05-17T13:50:20.261Z,61.88
2019-05-17T13:51:20.227Z,67.50
2019-05-17T13:52:20.234Z,106.88
2019-05-17T13:53:20.204Z,67.50
2019-05-17T13:54:20.208Z,67.50
2019-05-17T13:55:20.228Z,73.12
2019-05-17T13:56:20.201Z,73.12
2019-05-17T13:57:20.175Z,73.12
2019-05-17T13:58:20.148Z,67.50
2019-05-17T13:59:20.170Z,67.50
2019-05-17T14:00:20.133Z,67.50
2019-05-17T14:01:20.240Z,61.88
2019-05-17T14:02:20.130Z,61.88
2019-05-17T14:03:20.134Z,61.88
2019-05-17T14:04:20.086Z,61.88
2019-05-17T14:05:20.086Z,67.50
2019-05-17T14:06:20.088Z,67.50
2019-05-17T14:07:20.103Z,61.88
2019-05-17T14:08:20.125Z,61.88
2019-05-17T14:09:20.047Z,61.88
2019-05-17T14:10:27.786Z,61.88
2019-05-17T14:11:21.063Z,67.50
2019-05-17T14:12:20.002Z,67.50
2019-05-17T14:13:19.996Z,67.50
2019-05-17T14:14:19.986Z,61.88
2019-05-17T14:15:20.029Z,56.25
2019-05-17T14:16:19.962Z,56.25
2019-05-17T14:17:19.977Z,61.88
2019-05-17T14:18:19.968Z,61.88
2019-05-17T14:19:19.953Z,61.88
2019-05-17T14:20:20.237Z,61.88
2019-05-17T14:21:19.922Z,61.88
2019-05-17T14:22:19.897Z,50.62
2019-05-17T14:23:19.879Z,61.88
2019-05-17T14:24:19.888Z,61.88
2019-05-17T14:25:19.888Z,61.88
2019-05-17T14:26:19.863Z,61.88
2019-05-17T14:27:19.872Z,61.88
2019-05-17T14:28:19.845Z,61.88
2019-05-17T14:29:19.821Z,61.88
2019-05-17T14:30:19.844Z,67.50
2019-05-17T14:31:19.873Z,67.50
2019-05-17T14:32:19.833Z,61.88
2019-05-17T14:33:19.782Z,61.88
2019-05-17T14:34:19.782Z,50.62
2019-05-17T14:35:19.807Z,50.62
2019-05-17T14:36:19.767Z,56.25
2019-05-17T14:37:19.783Z,56.25
2019-05-17T14:38:19.733Z,50.62
2019-05-17T14:39:19.734Z,45.00
2019-05-17T14:40:19.704Z,50.62
2019-05-17T14:41:19.735Z,45.00
2019-05-17T14:42:19.725Z,45.00
2019-05-17T14:43:19.703Z,45.00
2019-05-17T14:44:19.715Z,45.00
2019-05-17T14:45:19.650Z,45.00
2019-05-17T14:46:19.725Z,45.00
2019-05-17T14:47:19.630Z,45.00
2019-05-17T14:48:19.632Z,45.00
2019-05-17T14:49:19.683Z,45.00
2019-05-17T14:50:19.600Z,45.00
2019-05-17T14:51:19.611Z,39.38
2019-05-17T14:52:19.580Z,45.00
2019-05-17T14:53:19.582Z,39.38
2019-05-17T14:54:19.559Z,39.38
2019-05-17T14:55:19.553Z,39.38
2019-05-17T14:56:19.601Z,45.00
2019-05-17T14:57:19.568Z,56.25
2019-05-17T14:58:19.512Z,56.25
2019-05-17T14:59:19.491Z,56.25
2019-05-17T15:00:19.537Z,56.25
2019-05-17T15:01:19.572Z,56.25
2019-05-17T15:02:19.479Z,39.38
2019-05-17T15:03:19.469Z,33.75
2019-05-17T15:04:19.444Z,33.75
2019-05-17T15:05:19.470Z,28.12
2019-05-17T15:06:19.882Z,28.12
2019-05-17T15:07:19.621Z,28.12
2019-05-17T15:08:19.414Z,28.12
2019-05-17T15:09:19.420Z,22.50
2019-05-17T15:10:19.370Z,22.50
2019-05-17T15:11:19.505Z,28.12
2019-05-17T15:12:27.757Z,28.12
2019-05-17T15:13:20.367Z,28.12
2019-05-17T15:14:19.518Z,28.12
2019-05-17T15:15:25.638Z,28.12
2019-05-17T15:16:20.306Z,28.12
2019-05-17T15:17:19.389Z,28.12
2019-05-17T15:18:19.353Z,28.12
2019-05-17T15:19:19.551Z,28.12
2019-05-17T15:20:19.449Z,28.12
2019-05-17T15:21:19.255Z,28.12
2019-05-17T15:22:19.305Z,28.12
2019-05-17T15:23:20.071Z,28.12
2019-05-17T15:24:19.226Z,28.12
2019-05-17T15:25:19.221Z,28.12
2019-05-17T15:26:19.227Z,28.12
2019-05-17T15:27:19.389Z,28.12
2019-05-17T15:28:19.197Z,28.12
2019-05-17T15:29:19.192Z,28.12
2019-05-17T15:30:19.160Z,28.12
2019-05-17T15:31:19.159Z,28.12
2019-05-17T15:32:19.888Z,28.12
2019-05-17T15:33:20.077Z,28.12
2019-05-17T15:34:19.149Z,28.12
2019-05-17T15:35:20.043Z,28.12
2019-05-17T15:36:19.457Z,22.50
2019-05-17T15:37:19.394Z,22.50
2019-05-17T15:38:19.250Z,22.50
2019-05-17T15:39:19.617Z,28.12
2019-05-17T15:40:19.234Z,28.12
2019-05-17T15:41:22.692Z,28.12
2019-05-17T15:42:19.133Z,28.12
2019-05-17T15:43:19.039Z,28.12
2019-05-17T15:44:19.193Z,28.12
2019-05-17T15:45:19.096Z,28.12
2019-05-17T15:46:19.012Z,28.12
2019-05-17T15:47:19.180Z,28.12
2019-05-17T15:48:19.114Z,28.12
2019-05-17T15:49:19.041Z,22.50
2019-05-17T15:50:19.088Z,28.12
2019-05-17T15:51:19.031Z,22.50
2019-05-17T15:52:19.102Z,22.50
2019-05-17T15:53:19.271Z,22.50
2019-05-17T15:54:19.770Z,22.50
2019-05-17T15:55:20.156Z,22.50
2019-05-17T15:56:30.697Z,22.50
2019-05-17T15:57:19.890Z,22.50
2019-05-17T15:58:19.097Z,22.50
2019-05-17T15:59:19.009Z,22.50
2019-05-17T16:00:18.993Z,22.50
2019-05-17T16:01:18.941Z,22.50
2019-05-17T16:02:18.938Z,22.50
2019-05-17T16:03:19.164Z,22.50
2019-05-17T16:04:18.886Z,22.50
2019-05-17T16:05:19.086Z,22.50
2019-05-17T16:06:18.877Z,22.50
2019-05-17T16:07:18.771Z,22.50
2019-05-17T16:08:19.005Z,33.75
2019-05-17T16:09:19.123Z,33.75
2019-05-17T16:10:18.873Z,28.12
2019-05-17T16:11:18.745Z,28.12
2019-05-17T16:12:19.801Z,33.75
2019-05-17T16:13:18.852Z,28.12
2019-05-17T16:14:18.701Z,28.12
2019-05-17T16:15:18.709Z,33.75
2019-05-17T16:16:18.753Z,28.12
2019-05-17T16:17:19.484Z,28.12
2019-05-17T16:18:18.784Z,28.12
2019-05-17T16:19:19.233Z,33.75
2019-05-17T16:20:18.738Z,28.12
2019-05-17T16:23:56.127Z,22.50
2019-05-17T16:25:03.984Z,22.50
2019-05-17T16:27:13.071Z,22.50
2019-05-17T16:29:23.473Z,22.50
2019-05-17T16:31:38.929Z,22.50
2019-05-17T16:32:38.872Z,22.50
2019-05-17T16:33:39.053Z,22.50
2019-05-17T16:34:39.319Z,22.50
2019-05-17T16:36:55.237Z,22.50
2019-05-17T16:37:55.201Z,22.50
2019-05-17T16:38:56.434Z,22.50
2019-05-17T16:39:55.214Z,22.50
2019-05-17T16:40:55.018Z,22.50
2019-05-17T16:41:55.024Z,22.50
2019-05-17T16:42:55.008Z,22.50
2019-05-17T16:43:55.554Z,22.50
2019-05-17T16:45:56.159Z,22.50
2019-05-17T16:46:54.921Z,22.50
2019-05-17T16:47:54.997Z,22.50
2019-05-17T16:50:24.716Z,22.50
2019-05-17T16:51:24.055Z,22.50
2019-05-17T16:52:23.898Z,22.50
2019-05-17T16:53:23.828Z,22.50
2019-05-17T16:54:24.344Z,22.50
2019-05-17T16:55:26.123Z,22.50
2019-05-17T16:57:51.616Z,22.50
2019-05-17T16:58:53.042Z,22.50
2019-05-17T16:59:51.390Z,22.50
2019-05-17T17:00:51.728Z,22.50
2019-05-17T17:01:51.269Z,22.50
2019-05-17T17:02:51.113Z,22.50
2019-05-17T17:03:51.094Z,22.50
2019-05-17T17:04:51.147Z,22.50
2019-05-17T17:05:51.132Z,16.88
2019-05-17T17:06:51.747Z,16.88
2019-05-17T17:07:51.028Z,16.88
2019-05-17T17:08:51.022Z,16.88
2019-05-17T17:09:51.011Z,16.88
2019-05-17T17:10:51.100Z,16.88
2019-05-17T17:11:51.045Z,22.50
2019-05-17T17:12:51.065Z,45.00
2019-05-17T17:13:50.976Z,22.50
2019-05-17T17:14:51.036Z,22.50
2019-05-17T17:15:50.942Z,22.50
2019-05-17T17:16:50.953Z,22.50
2019-05-17T17:17:50.915Z,22.50
2019-05-17T17:18:50.958Z,39.38
2019-05-17T17:19:50.892Z,28.12
2019-05-17T17:20:50.877Z,22.50
2019-05-17T17:21:50.869Z,22.50
2019-05-17T17:22:50.927Z,56.25
2019-05-17T17:23:50.877Z,22.50
2019-05-17T17:24:50.873Z,22.50
2019-05-17T17:25:50.863Z,45.00
2019-05-17T17:26:50.825Z,22.50
2019-05-17T17:27:50.827Z,22.50
2019-05-17T17:28:50.817Z,22.50
2019-05-17T17:29:52.137Z,22.50
2019-05-17T17:30:57.196Z,22.50
2019-05-17T17:31:50.862Z,22.50
2019-05-17T17:32:50.760Z,22.50
2019-05-17T17:33:50.743Z,16.88
2019-05-17T17:34:50.742Z,16.88
2019-05-17T17:35:51.238Z,16.88
2019-05-17T17:36:50.709Z,16.88
2019-05-17T17:37:52.721Z,16.88
2019-05-17T17:38:52.236Z,16.88
2019-05-17T17:39:53.318Z,16.88
2019-05-17T17:40:50.668Z,16.88
2019-05-17T17:41:50.694Z,11.25
2019-05-17T17:42:50.681Z,11.25
2019-05-17T17:43:58.450Z,11.25
2019-05-17T17:44:51.817Z,11.25
2019-05-17T17:45:50.773Z,11.25
2019-05-17T17:46:50.624Z,11.25
2019-05-17T17:47:50.608Z,11.25
2019-05-17T17:48:50.620Z,11.25
2019-05-17T17:49:50.607Z,11.25
2019-05-17T17:50:50.607Z,11.25
2019-05-17T17:51:50.559Z,5.62
2019-05-17T17:52:50.598Z,5.62
2019-05-17T17:53:50.539Z,5.62
2019-05-17T17:54:50.533Z,5.62
2019-05-17T17:55:50.551Z,5.62
2019-05-17T17:56:50.509Z,5.62
2019-05-17T17:57:50.763Z,5.62
2019-05-17T17:58:50.538Z,5.62
2019-05-17T17:59:50.475Z,5.62
2019-05-17T18:00:50.507Z,5.62
2019-05-17T18:01:50.484Z,5.62
2019-05-17T18:02:50.452Z,5.62
2019-05-17T18:03:50.453Z,5.62
2019-05-17T18:04:50.437Z,5.62
2019-05-17T18:05:50.437Z,5.62
2019-05-17T18:06:50.448Z,5.62
2019-05-17T18:07:50.897Z,5.62
2019-05-17T18:08:50.408Z,5.62
2019-05-17T18:09:50.384Z,5.62
2019-05-17T18:10:50.382Z,5.62
2019-05-17T18:11:50.403Z,5.62
2019-05-17T18:12:50.343Z,5.62
2019-05-17T18:13:50.344Z,5.62
2019-05-17T18:14:50.351Z,5.62
2019-05-17T18:15:50.586Z,0.00
2019-05-17T18:16:50.332Z,0.00
2019-05-17T18:17:50.291Z,0.00
2019-05-17T18:18:50.419Z,0.00
2019-05-17T18:19:50.279Z,0.00
2019-05-17T18:20:50.286Z,0.00
2019-05-17T18:21:50.266Z,0.00
2019-05-17T18:22:50.255Z,0.00
2019-05-17T18:23:50.271Z,0.00
2019-05-17T18:24:50.247Z,0.00
2019-05-17T18:25:50.273Z,0.00
2019-05-17T18:26:50.220Z,0.00
2019-05-17T18:27:50.240Z,0.00
2019-05-17T18:28:50.174Z,0.00
2019-05-17T18:29:50.231Z,0.00
